Time;durP1;ratioP1;P1;durP2;ratioP2;P2;SDS_P1;SDS_P2;PMS_P1;PMS_P2;Temp;Humidity;BMP_temperature;BMP_pressure;BME280_temperature;BME280_humidity;BME280_pressure;Samples;Min_cycle;Max_cycle;Signal;HPM_P1;HPM_P2
2023/10/26 00:00:36;;;;;;;2.90;2.50;;;;;;;9.74;100.00;96129.46;110290;1241;68489;-68
2023/10/26 00:03:26;;;;;;;4.10;3.20;;;;;;;9.77;100.00;96126.55;110208;1241;68362;-67
2023/10/26 00:06:00;;;;;;;4.60;2.90;;;;;;;9.81;100.00;96131.23;110254;1240;59663;-68
2023/10/26 00:08:30;;;;;;;4.20;2.70;;;;;;;9.85;100.00;96127.82;110282;1241;59621;-68
2023/10/26 00:11:06;;;;;;;4.60;2.60;;;;;;;9.87;100.00;96133.14;110303;1242;71407;-67
2023/10/26 00:13:36;;;;;;;3.80;3.10;;;;;;;9.88;100.00;96134.61;110268;1241;68628;-68
2023/10/26 00:16:06;;;;;;;3.60;2.70;;;;;;;9.87;100.00;96136.08;110250;1241;68570;-69
2023/10/26 00:18:36;;;;;;;4.00;3.30;;;;;;;9.86;100.00;96136.41;110240;1241;59731;-68
2023/10/26 00:21:08;;;;;;;4.90;3.10;;;;;;;9.82;100.00;96131.33;110246;1241;59675;-69
2023/10/26 00:23:40;;;;;;;4.00;3.10;;;;;;;9.79;100.00;96134.75;110345;1241;71374;-68
2023/10/26 00:26:11;;;;;;;5.60;3.50;;;;;;;9.76;100.00;96139.71;110416;1241;69160;-68
2023/10/26 00:28:43;;;;;;;4.50;3.50;;;;;;;9.74;100.00;96147.42;110132;1244;69282;-68
2023/10/26 00:31:15;;;;;;;4.30;3.10;;;;;;;9.71;100.00;96148.68;110215;1241;59632;-68
2023/10/26 00:33:49;;;;;;;5.00;3.90;;;;;;;9.69;100.00;96140.66;110365;1241;59672;-69
2023/10/26 00:36:21;;;;;;;4.60;4.00;;;;;;;9.68;100.00;96125.58;110320;1240;71254;-67
2023/10/26 00:38:54;;;;;;;4.00;3.20;;;;;;;9.69;100.00;96106.38;110344;1241;69224;-67
2023/10/26 00:41:32;;;;;;;3.60;2.90;;;;;;;9.71;100.00;96088.66;110211;1242;68527;-66
2023/10/26 00:44:09;;;;;;;4.10;3.20;;;;;;;9.74;100.00;96084.63;110349;1241;59740;-66
2023/10/26 00:46:41;;;;;;;4.10;3.00;;;;;;;9.74;100.00;96088.91;110314;1241;59679;-67
2023/10/26 00:49:16;;;;;;;3.90;3.10;;;;;;;9.74;100.00;96089.45;110282;1241;71249;-66
2023/10/26 00:51:57;;;;;;;4.40;3.40;;;;;;;9.76;100.00;96090.67;110315;1241;68608;-67
2023/10/26 00:54:28;;;;;;;4.40;3.00;;;;;;;9.78;100.00;96097.59;110264;1241;69145;-68
2023/10/26 00:57:03;;;;;;;4.10;2.80;;;;;;;9.81;100.00;96099.79;110248;1241;59667;-66
2023/10/26 00:59:38;;;;;;;4.80;3.50;;;;;;;9.83;100.00;96094.67;110300;1241;59691;-66
2023/10/26 01:02:20;;;;;;;4.10;3.60;;;;;;;9.84;100.00;96088.90;110308;1239;71793;-67
2023/10/26 01:04:55;;;;;;;4.30;3.80;;;;;;;9.86;100.00;96083.34;110277;1241;69053;-67
2023/10/26 01:07:34;;;;;;;4.60;3.70;;;;;;;9.88;100.00;96084.31;110321;1242;68373;-67
2023/10/26 01:10:10;;;;;;;4.40;3.30;;;;;;;9.92;100.00;96087.63;110315;1245;59676;-67
2023/10/26 01:12:52;;;;;;;4.40;3.80;;;;;;;9.97;100.00;96085.30;110346;1241;59666;-66
2023/10/26 01:15:32;;;;;;;3.90;3.00;;;;;;;10.03;100.00;96089.43;110344;1241;71327;-66
2023/10/26 01:18:04;;;;;;;4.10;3.10;;;;;;;10.09;100.00;96092.84;110367;1241;69252;-67
2023/10/26 01:20:42;;;;;;;3.60;2.50;;;;;;;10.14;100.00;96087.16;110330;1242;69190;-69
2023/10/26 01:23:20;;;;;;;3.70;2.80;;;;;;;10.20;100.00;96090.77;110284;1241;59658;-67
2023/10/26 01:25:58;;;;;;;4.60;3.60;;;;;;;10.21;100.00;96091.36;110290;1242;59711;-68
2023/10/26 01:28:45;;;;;;;4.10;3.50;;;;;;;10.19;100.00;96091.02;110338;1241;71518;-68
2023/10/26 01:31:19;;;;;;;4.30;3.80;;;;;;;10.16;100.00;96091.88;110355;1241;69258;-68
2023/10/26 01:33:55;;;;;;;4.00;3.20;;;;;;;10.12;100.00;96090.33;110221;1247;69624;-68
2023/10/26 01:36:40;;;;;;;4.80;3.00;;;;;;;10.10;100.00;96085.56;110309;1242;59690;-68
2023/10/26 01:39:13;;;;;;;3.70;2.90;;;;;;;10.11;100.00;96080.80;110335;1242;59728;-68
2023/10/26 01:41:47;;;;;;;3.50;3.00;;;;;;;10.12;100.00;96075.13;110257;1241;71403;-68
2023/10/26 01:44:23;;;;;;;4.00;2.60;;;;;;;10.14;100.00;96075.73;110146;1240;68861;-67
2023/10/26 01:47:06;;;;;;;3.30;2.80;;;;;;;10.17;100.00;96071.43;110273;1241;67816;-66
2023/10/26 01:49:44;;;;;;;2.90;2.30;;;;;;;10.19;100.00;96070.55;110222;1243;59731;-67
2023/10/26 01:52:15;;;;;;;3.10;2.30;;;;;;;10.22;100.00;96071.86;110232;1241;59631;-68
2023/10/26 01:54:52;;;;;;;4.10;3.10;;;;;;;10.25;100.00;96068.59;110201;1241;70652;-67
2023/10/26 01:57:25;;;;;;;3.90;3.00;;;;;;;10.28;100.00;96067.17;110210;1242;69095;-67
2023/10/26 01:59:57;;;;;;;4.30;3.10;;;;;;;10.30;100.00;96072.48;110321;1248;69260;-67
2023/10/26 02:02:28;;;;;;;3.90;2.30;;;;;;;10.33;100.00;96066.95;110298;1241;59732;-67
2023/10/26 02:05:01;;;;;;;2.80;2.40;;;;;;;10.37;100.00;96068.90;110147;1240;59697;-67
2023/10/26 02:07:34;;;;;;;4.00;3.10;;;;;;;10.40;100.00;96070.35;110260;1242;70428;-67
2023/10/26 02:10:14;;;;;;;3.50;2.40;;;;;;;10.43;100.00;96074.37;110252;1241;69303;-67
2023/10/26 02:12:47;;;;;;;2.50;1.90;;;;;;;10.48;100.00;96074.85;110260;1242;68298;-66
2023/10/26 02:15:21;;;;;;;3.30;2.10;;;;;;;10.51;100.00;96077.56;110216;1240;59700;-67
2023/10/26 02:17:53;;;;;;;2.80;2.20;;;;;;;10.52;100.00;96079.15;110182;1242;59740;-69
2023/10/26 02:20:32;;;;;;;2.50;2.00;;;;;;;10.54;100.00;96074.27;110161;1241;70638;-67
2023/10/26 02:23:21;;;;;;;2.60;1.90;;;;;;;10.56;100.00;96077.73;110237;1241;68356;-67
2023/10/26 02:25:57;;;;;;;2.90;2.10;;;;;;;10.56;100.00;96076.33;110224;1242;69214;-68
2023/10/26 02:28:34;;;;;;;2.80;2.00;;;;;;;10.56;100.00;96077.89;110242;1241;59723;-68
2023/10/26 02:31:11;;;;;;;3.60;2.80;;;;;;;10.56;100.00;96075.48;110226;1242;59684;-68
2023/10/26 02:33:46;;;;;;;3.50;2.90;;;;;;;10.56;100.00;96077.05;110274;1240;71752;-67
2023/10/26 02:36:20;;;;;;;3.30;2.60;;;;;;;10.56;100.00;96081.56;110264;1240;68379;-66
2023/10/26 02:38:55;;;;;;;2.90;2.20;;;;;;;10.57;100.00;96082.97;110234;1239;68572;-67
2023/10/26 02:41:27;;;;;;;3.00;2.10;;;;;;;10.60;100.00;96082.05;110222;1240;59687;-67
2023/10/26 02:44:00;;;;;;;4.70;3.10;;;;;;;10.61;100.00;96085.61;110267;1248;59645;-68
2023/10/26 02:46:34;;;;;;;3.80;2.90;;;;;;;10.59;100.00;96085.84;110315;1241;71898;-69
2023/10/26 02:49:07;;;;;;;5.60;4.40;;;;;;;10.55;100.00;96085.80;110294;1241;68518;-69
2023/10/26 02:51:40;;;;;;;4.80;3.50;;;;;;;10.49;100.00;96083.95;110283;1241;69303;-68
2023/10/26 02:54:14;;;;;;;4.30;3.40;;;;;;;10.45;100.00;96080.86;110204;1241;59723;-67
2023/10/26 02:56:48;;;;;;;4.40;3.40;;;;;;;10.41;100.00;96068.83;110295;1241;59679;-67
2023/10/26 02:59:21;;;;;;;5.00;3.50;;;;;;;10.38;100.00;96065.45;110312;1242;71422;-67
2023/10/26 03:01:52;;;;;;;4.40;2.90;;;;;;;10.36;100.00;96054.36;110264;1241;69078;-66
2023/10/26 03:04:23;;;;;;;4.30;3.30;;;;;;;10.35;100.00;96047.13;110244;1241;69688;-68
2023/10/26 03:06:53;;;;;;;;;;;;;;;10.33;100.00;96051.64;110214;1241;59719;-68
2023/10/26 03:09:25;;;;;;;4.00;3.00;;;;;;;10.31;100.00;96058.48;110187;1244;59671;-67
2023/10/26 03:11:58;;;;;;;4.00;2.90;;;;;;;10.30;100.00;96063.79;110220;1240;69761;-68
2023/10/26 03:14:28;;;;;;;3.60;2.80;;;;;;;10.30;100.00;96066.39;110288;1240;69224;-68
2023/10/26 03:16:58;;;;;;;;;;;;;;;10.32;100.00;96062.54;110313;1243;68688;-68
2023/10/26 03:19:28;;;;;;;3.40;2.60;;;;;;;10.37;100.00;96064.36;110300;1240;59661;-69
2023/10/26 03:21:59;;;;;;;2.40;1.90;;;;;;;10.42;100.00;96063.83;110296;1241;59662;-68
2023/10/26 03:24:30;;;;;;;2.50;1.90;;;;;;;10.47;100.00;96062.23;110215;1243;69982;-68
2023/10/26 03:27:00;;;;;;;4.40;2.20;;;;;;;10.52;100.00;96057.95;110302;1241;69654;-68
2023/10/26 03:29:32;;;;;;;3.40;2.30;;;;;;;10.56;100.00;96055.42;110271;1241;68316;-68
2023/10/26 03:32:06;;;;;;;5.80;4.20;;;;;;;10.61;100.00;96057.74;110309;1241;59741;-67
2023/10/26 03:34:36;;;;;;;5.60;4.30;;;;;;;10.61;100.00;96059.33;110263;1240;59677;-67
2023/10/26 03:37:08;;;;;;;4.20;3.60;;;;;;;10.56;100.00;96062.44;110171;1244;71251;-67
2023/10/26 03:39:39;;;;;;;5.20;3.70;;;;;;;10.49;100.00;96060.07;110278;1241;69674;-68
2023/10/26 03:42:11;;;;;;;4.50;3.90;;;;;;;10.43;100.00;96058.34;110285;1241;69302;-69
2023/10/26 03:44:42;;;;;;;4.10;3.50;;;;;;;10.40;100.00;96056.10;110302;1241;59741;-68
2023/10/26 03:47:18;;;;;;;3.70;3.00;;;;;;;10.38;100.00;96056.83;110310;1239;59949;-69
2023/10/26 03:49:52;;;;;;;5.20;3.50;;;;;;;10.38;100.00;96054.02;110265;1241;71410;-68
2023/10/26 03:52:23;;;;;;;4.70;3.40;;;;;;;10.38;100.00;96056.79;110190;1241;69053;-67
2023/10/26 03:54:53;;;;;;;4.00;3.00;;;;;;;10.38;100.00;96060.12;110296;1244;68540;-67
2023/10/26 03:57:23;;;;;;;;;;;;;;;10.38;100.00;96058.88;110286;1241;59736;-68
2023/10/26 03:59:54;;;;;;;3.50;2.40;;;;;;;10.38;100.00;96067.90;110268;1241;59699;-67
2023/10/26 04:02:24;;;;;;;3.60;2.90;;;;;;;10.40;100.00;96072.08;110236;1241;71372;-67
2023/10/26 04:04:55;;;;;;;3.30;2.80;;;;;;;10.42;100.00;96070.86;110228;1241;69136;-67
2023/10/26 04:07:27;;;;;;;4.50;3.80;;;;;;;10.43;100.00;96071.48;110236;1240;68682;-67
2023/10/26 04:09:57;;;;;;;9.80;7.40;;;;;;;10.39;100.00;96080.69;110324;1240;59804;-66
2023/10/26 04:12:27;;;;;;;8.80;7.00;;;;;;;10.29;100.00;96087.70;110280;1241;59699;-69
2023/10/26 04:14:57;;;;;;;10.70;7.30;;;;;;;10.24;100.00;96092.17;110283;1240;70661;-67
2023/10/26 04:17:29;;;;;;;7.90;6.20;;;;;;;10.21;100.00;96096.27;110301;1239;68986;-67
2023/10/26 04:19:59;;;;;;;8.10;6.40;;;;;;;10.16;100.00;96089.60;110289;1241;69900;-67
2023/10/26 04:22:29;;;;;;;9.10;7.30;;;;;;;10.12;100.00;96084.80;110318;1241;59725;-67
2023/10/26 04:24:59;;;;;;;7.80;6.20;;;;;;;10.08;100.00;96085.98;110316;1241;59703;-68
2023/10/26 04:27:30;;;;;;;8.00;6.20;;;;;;;10.06;100.00;96087.00;110389;1242;70488;-68
2023/10/26 04:30:00;;;;;;;8.00;5.80;;;;;;;10.06;100.00;96079.39;110315;1248;69348;-68
2023/10/26 04:32:31;;;;;;;8.30;7.00;;;;;;;10.07;100.00;96072.35;110166;1242;69223;-68
2023/10/26 04:35:04;;;;;;;7.60;5.30;;;;;;;10.08;100.00;96075.35;110252;1241;59746;-67
2023/10/26 04:37:34;;;;;;;6.80;5.60;;;;;;;10.10;100.00;96071.17;110283;1241;59654;-67
2023/10/26 04:40:05;;;;;;;7.60;6.60;;;;;;;10.12;100.00;96060.91;110259;1240;71554;-66
2023/10/26 04:42:35;;;;;;;10.60;8.70;;;;;;;10.14;100.00;96057.61;110269;1241;69276;-68
2023/10/26 04:45:07;;;;;;;16.40;13.60;;;;;;;10.15;100.00;96058.80;110236;1241;69338;-69
2023/10/26 04:47:37;;;;;;;10.10;8.50;;;;;;;10.17;100.00;96060.63;110263;1241;59868;-68
2023/10/26 04:50:08;;;;;;;11.60;8.60;;;;;;;10.20;100.00;96065.39;110279;1241;59734;-68
2023/10/26 04:52:38;;;;;;;8.30;7.00;;;;;;;10.23;100.00;96071.08;110276;1239;71965;-69
2023/10/26 04:55:08;;;;;;;9.90;7.80;;;;;;;10.26;100.00;96084.70;110212;1240;69258;-67
2023/10/26 04:57:38;;;;;;;11.00;8.80;;;;;;;10.29;100.00;96076.48;110251;1248;69817;-68
2023/10/26 05:00:11;;;;;;;11.40;7.50;;;;;;;10.30;100.00;96076.33;110148;1242;59702;-68
2023/10/26 05:02:41;;;;;;;8.90;6.70;;;;;;;10.32;100.00;96074.95;110264;1242;59676;-68
2023/10/26 05:05:11;;;;;;;8.30;7.10;;;;;;;10.33;100.00;96072.27;110252;1241;72000;-68
2023/10/26 05:07:42;;;;;;;6.50;5.40;;;;;;;10.34;100.00;96079.76;110274;1241;69424;-68
2023/10/26 05:10:12;;;;;;;8.00;5.80;;;;;;;10.35;100.00;96078.33;110268;1241;69316;-68
2023/10/26 05:12:42;;;;;;;7.70;6.00;;;;;;;10.36;100.00;96079.77;110279;1241;60119;-67
2023/10/26 05:15:12;;;;;;;7.80;5.80;;;;;;;10.38;100.00;96075.27;110268;1241;59689;-68
2023/10/26 05:17:41;;;;;;;8.10;5.90;;;;;;;10.39;100.00;96071.49;110269;1246;72049;-67
2023/10/26 05:20:12;;;;;;;6.90;5.40;;;;;;;10.41;100.00;96066.08;110311;1241;67762;-67
2023/10/26 05:22:43;;;;;;;5.30;4.50;;;;;;;10.45;100.00;96068.52;110223;1248;69285;-67
2023/10/26 05:25:13;;;;;;;5.70;4.40;;;;;;;10.50;100.00;96070.83;110263;1241;59734;-66
2023/10/26 05:27:44;;;;;;;5.90;4.50;;;;;;;10.56;100.00;96069.95;110237;1241;59749;-66
2023/10/26 05:30:13;;;;;;;4.10;3.20;;;;;;;10.60;100.00;96077.55;110114;1239;71234;-66
2023/10/26 05:32:43;;;;;;;4.40;3.60;;;;;;;10.65;100.00;96083.49;110221;1241;68825;-66
2023/10/26 05:35:14;;;;;;;4.30;3.70;;;;;;;10.70;100.00;96083.04;110309;1242;67689;-66
2023/10/26 05:37:46;;;;;;;4.50;2.90;;;;;;;10.74;100.00;96088.80;110242;1241;59743;-66
2023/10/26 05:40:15;;;;;;;4.20;3.10;;;;;;;10.79;100.00;96099.32;110328;1241;59675;-68
2023/10/26 05:42:44;;;;;;;3.10;2.50;;;;;;;10.83;100.00;96115.09;110337;1240;71499;-68
2023/10/26 05:45:14;;;;;;;4.00;2.50;;;;;;;10.87;100.00;96129.16;110259;1241;69184;-66
2023/10/26 05:47:44;;;;;;;4.00;2.60;;;;;;;10.92;100.00;96129.09;110216;1241;69735;-67
2023/10/26 05:50:15;;;;;;;2.30;2.00;;;;;;;10.95;100.00;96129.48;110225;1239;59767;-68
2023/10/26 05:52:44;;;;;;;3.80;3.00;;;;;;;10.98;100.00;96136.16;110254;1241;59692;-68
2023/10/26 05:55:14;;;;;;;7.70;5.40;;;;;;;11.00;100.00;96136.30;110230;1240;71900;-68
2023/10/26 05:57:44;;;;;;;14.80;10.80;;;;;;;11.00;100.00;96145.38;110273;1240;67827;-67
2023/10/26 06:00:14;;;;;;;19.90;12.80;;;;;;;10.97;100.00;96152.31;110205;1241;69360;-66
2023/10/26 06:02:44;;;;;;;17.70;13.70;;;;;;;10.88;100.00;96148.77;110297;1241;59734;-66
2023/10/26 06:05:14;;;;;;;16.10;11.80;;;;;;;10.77;100.00;96148.20;110267;1240;59692;-66
2023/10/26 06:07:43;;;;;;;16.60;11.30;;;;;;;10.74;100.00;96142.45;110284;1239;71268;-67
2023/10/26 06:10:14;;;;;;;11.10;9.80;;;;;;;10.73;100.00;96137.50;110276;1241;68321;-66
2023/10/26 06:12:44;;;;;;;10.90;8.70;;;;;;;10.74;100.00;96133.08;110208;1246;68347;-65
2023/10/26 06:15:13;;;;;;;10.40;7.60;;;;;;;10.78;100.00;96123.79;110252;1241;59660;-66
2023/10/26 06:17:42;;;;;;;8.00;6.00;;;;;;;10.83;100.00;96117.23;110302;1241;59686;-66
2023/10/26 06:20:12;;;;;;;7.70;6.10;;;;;;;10.89;100.00;96114.52;110306;1241;71246;-66
2023/10/26 06:22:43;;;;;;;7.40;5.30;;;;;;;10.95;100.00;96111.89;110228;1241;69241;-67
2023/10/26 06:25:13;;;;;;;9.20;7.10;;;;;;;10.98;100.00;96108.05;110245;1241;68328;-67
2023/10/26 06:27:42;;;;;;;7.50;5.90;;;;;;;11.02;100.00;96101.10;110222;1241;59675;-68
2023/10/26 06:30:11;;;;;;;6.80;5.40;;;;;;;11.07;100.00;96104.48;110230;1241;59694;-67
2023/10/26 06:32:41;;;;;;;6.20;4.90;;;;;;;11.12;100.00;96104.30;110226;1241;71979;-67
2023/10/26 06:35:10;;;;;;;6.90;5.30;;;;;;;11.18;100.00;96100.92;110243;1241;69868;-66
2023/10/26 06:37:39;;;;;;;8.00;5.80;;;;;;;11.24;100.00;96095.83;110235;1241;69264;-66
2023/10/26 06:40:09;;;;;;;5.70;5.10;;;;;;;11.31;100.00;96087.68;110209;1241;59735;-67
2023/10/26 06:42:38;;;;;;;7.20;5.80;;;;;;;11.37;100.00;96082.05;110245;1241;59732;-67
2023/10/26 06:45:08;;;;;;;9.30;7.00;;;;;;;11.44;100.00;96076.44;110125;1239;70465;-66
2023/10/26 06:47:39;;;;;;;7.40;6.00;;;;;;;11.54;100.00;96075.32;110222;1241;67408;-67
2023/10/26 06:50:08;;;;;;;6.50;5.90;;;;;;;11.65;100.00;96077.51;110288;1239;68165;-67
2023/10/26 06:52:37;;;;;;;7.20;5.70;;;;;;;11.78;100.00;96076.33;110211;1241;59668;-67
2023/10/26 06:55:07;;;;;;;7.50;6.80;;;;;;;11.89;100.00;96077.66;110230;1241;59665;-66
2023/10/26 06:57:56;;;;;;;4.70;3.50;;;;;;;12.01;100.00;96082.38;110247;1241;71437;-66
2023/10/26 07:00:25;;;;;;;5.20;3.30;;;;;;;12.10;100.00;96086.59;110278;1241;69129;-68
2023/10/26 07:02:55;;;;;;;4.20;2.90;;;;;;;12.16;100.00;96083.14;110280;1241;68355;-68
2023/10/26 07:05:26;;;;;;;3.50;2.70;;;;;;;12.21;100.00;96087.34;110215;1240;59758;-68
2023/10/26 07:07:59;;;;;;;3.70;2.90;;;;;;;12.28;100.00;96087.11;110272;1240;59744;-67
2023/10/26 07:10:31;;;;;;;2.80;2.40;;;;;;;12.32;100.00;96087.89;110254;1241;70867;-67
2023/10/26 07:13:00;;;;;;;3.30;2.20;;;;;;;12.39;100.00;96086.16;110232;1241;68770;-67
2023/10/26 07:15:36;;;;;;;2.20;1.90;;;;;;;12.47;100.00;96086.51;110260;1241;69836;-68
2023/10/26 07:18:06;;;;;;;3.50;2.10;;;;;;;12.55;100.00;96089.56;110255;1241;59685;-67
2023/10/26 07:20:37;;;;;;;3.40;2.20;;;;;;;12.60;100.00;96091.10;110241;1241;59679;-68
2023/10/26 07:23:06;;;;;;;3.30;2.00;;;;;;;12.64;100.00;96090.49;110226;1242;70648;-68
2023/10/26 07:25:35;;;;;;;3.80;2.30;;;;;;;12.69;100.00;96090.55;110235;1240;68401;-68
2023/10/26 07:28:05;;;;;;;3.90;2.40;;;;;;;12.74;100.00;96095.46;110246;1241;69132;-68
2023/10/26 07:30:42;;;;;;;2.60;1.90;;;;;;;12.80;100.00;96096.11;110266;1240;59677;-68
2023/10/26 07:33:11;;;;;;;2.50;2.00;;;;;;;12.86;100.00;96097.19;110315;1241;59734;-68
2023/10/26 07:35:50;;;;;;;2.50;1.90;;;;;;;12.93;100.00;96100.20;110268;1241;71637;-68
2023/10/26 07:38:24;;;;;;;2.60;2.00;;;;;;;13.02;100.00;96104.16;110274;1245;68507;-67
2023/10/26 07:41:07;;;;;;;2.70;2.00;;;;;;;13.13;100.00;96105.98;110233;1241;69087;-69
2023/10/26 07:43:37;;;;;;;2.60;2.20;;;;;;;13.25;100.00;96106.12;110279;1241;59706;-69
2023/10/26 07:46:06;;;;;;;3.00;2.20;;;;;;;13.39;100.00;96105.92;110330;1248;59689;-69
2023/10/26 07:48:36;;;;;;;2.90;2.10;;;;;;;13.53;100.00;96111.98;110236;1240;71231;-67
2023/10/26 07:51:08;;;;;;;2.80;1.90;;;;;;;13.68;100.00;96112.27;110221;1240;68504;-68
2023/10/26 07:53:37;;;;;;;3.50;2.30;;;;;;;13.85;100.00;96115.94;110259;1240;69783;-67
2023/10/26 07:56:07;;;;;;;2.70;2.00;;;;;;;14.01;100.00;96117.52;110245;1241;59808;-67
2023/10/26 07:58:36;;;;;;;3.60;2.40;;;;;;;14.15;100.00;96119.59;110255;1241;59621;-67
2023/10/26 08:01:11;;;;;;;2.60;1.90;;;;;;;14.23;100.00;96117.45;110243;1241;71441;-67
2023/10/26 08:03:41;;;;;;;3.60;2.50;;;;;;;14.35;100.00;96112.50;110262;1241;68797;-69
2023/10/26 08:06:11;;;;;;;3.30;2.20;;;;;;;14.45;100.00;96113.88;110273;1241;68186;-69
2023/10/26 08:08:40;;;;;;;;;;;;;;;14.61;100.00;96114.61;110267;1240;59757;-67
2023/10/26 08:11:14;;;;;;;2.80;1.60;;;;;;;14.77;100.00;96111.73;110290;1240;59641;-69
2023/10/26 08:13:46;;;;;;;2.90;2.10;;;;;;;14.89;100.00;96108.30;110255;1241;71294;-66
2023/10/26 08:16:22;;;;;;;3.90;2.00;;;;;;;15.04;100.00;96112.05;110264;1241;69078;-68
2023/10/26 08:19:12;;;;;;;2.40;1.50;;;;;;;15.17;100.00;96113.13;110221;1241;69633;-69
2023/10/26 08:21:44;;;;;;;2.80;1.60;;;;;;;15.20;100.00;96112.05;110319;1240;59702;-68
2023/10/26 08:24:16;;;;;;;2.50;1.70;;;;;;;15.25;100.00;96114.27;110284;1239;59728;-66
2023/10/26 08:26:47;;;;;;;;;;;;;;;15.27;100.00;96112.09;110284;1241;71215;-67
2023/10/26 08:29:15;;;;;;;;;;;;;;;15.30;100.00;96116.39;110180;1239;69604;-68
2023/10/26 08:31:56;;;;;;;2.20;1.60;;;;;;;15.32;100.00;96123.68;110288;1241;69932;-67
2023/10/26 08:34:27;;;;;;;;;;;;;;;15.32;100.00;96127.12;110250;1239;59679;-69
2023/10/26 08:36:58;;;;;;;2.60;1.40;;;;;;;15.31;100.00;96130.86;110256;1239;59741;-67
2023/10/26 08:39:41;;;;;;;3.60;1.60;;;;;;;15.32;100.00;96133.89;110261;1241;71979;-67
2023/10/26 08:42:10;;;;;;;2.60;1.40;;;;;;;15.31;100.00;96135.25;110246;1241;70173;-68
2023/10/26 08:44:42;;;;;;;2.30;1.30;;;;;;;15.37;100.00;96125.61;110270;1241;69076;-68
2023/10/26 08:47:14;;;;;;;1.80;1.40;;;;;;;15.47;100.00;96128.14;110259;1241;59697;-68
2023/10/26 08:49:46;;;;;;;2.30;1.20;;;;;;;15.52;100.00;96130.25;110240;1241;59638;-69
2023/10/26 08:52:27;;;;;;;2.60;1.50;;;;;;;15.47;100.00;96131.84;110242;1240;71989;-68
2023/10/26 08:54:56;;;;;;;4.50;1.70;;;;;;;15.46;100.00;96133.19;110204;1241;69421;-67
2023/10/26 08:57:28;;;;;;;1.90;1.60;;;;;;;15.42;100.00;96134.39;110224;1241;69843;-67
2023/10/26 09:00:05;;;;;;;1.80;1.20;;;;;;;15.42;100.00;96137.04;110228;1241;59741;-69
2023/10/26 09:02:36;;;;;;;2.30;1.40;;;;;;;15.48;100.00;96135.45;110291;1240;59702;-69
2023/10/26 09:05:08;;;;;;;1.80;1.30;;;;;;;15.55;100.00;96132.55;110237;1241;72036;-69
2023/10/26 09:07:38;;;;;;;2.60;1.60;;;;;;;15.62;100.00;96129.64;110217;1241;67317;-68
2023/10/26 09:10:07;;;;;;;;;;;;;;;15.67;100.00;96134.76;110314;1241;68559;-67
2023/10/26 09:12:37;;;;;;;1.40;1.20;;;;;;;15.72;100.00;96137.33;110245;1242;59708;-67
2023/10/26 09:15:08;;;;;;;2.60;1.20;;;;;;;15.74;100.00;96142.51;110292;1241;59689;-68
2023/10/26 09:17:38;;;;;;;1.70;1.30;;;;;;;15.70;100.00;96137.98;110288;1241;69645;-67
2023/10/26 09:20:21;;;;;;;2.10;1.50;;;;;;;15.69;100.00;96131.64;109729;1241;704873;-67
2023/10/26 09:22:51;;;;;;;3.00;1.60;;;;;;;15.78;100.00;96126.77;110236;1241;69885;-67
2023/10/26 09:25:21;;;;;;;;;;;;;;;15.85;100.00;96118.42;110178;1240;59710;-69
2023/10/26 09:28:02;;;;;;;1.60;1.20;;;;;;;15.93;100.00;96108.75;110314;1239;59721;-66
2023/10/26 09:30:32;;;;;;;2.50;1.50;;;;;;;16.02;100.00;96100.32;110273;1241;71207;-68
2023/10/26 09:33:03;;;;;;;2.70;2.00;;;;;;;16.11;100.00;96104.93;110280;1241;69836;-68
2023/10/26 09:35:34;;;;;;;2.20;1.50;;;;;;;16.17;100.00;96103.61;110277;1240;69214;-68
2023/10/26 09:38:03;;;;;;;3.30;1.70;;;;;;;16.22;100.00;96101.63;110302;1240;59757;-67
2023/10/26 09:40:32;;;;;;;3.80;1.60;;;;;;;16.29;100.00;96100.67;110294;1241;59743;-68
2023/10/26 09:43:02;;;;;;;1.90;1.30;;;;;;;16.26;100.00;96100.10;110299;1240;72147;-68
2023/10/26 09:45:32;;;;;;;2.60;1.40;;;;;;;16.20;100.00;96095.74;110244;1240;69434;-67
2023/10/26 09:48:05;;;;;;;2.90;1.40;;;;;;;16.16;100.00;96098.35;110253;1241;70254;-68
2023/10/26 09:50:40;;;;;;;2.30;1.30;;;;;;;16.14;100.00;96104.36;110167;1242;59795;-67
2023/10/26 09:53:09;;;;;;;2.40;1.80;;;;;;;16.09;100.00;96105.30;110298;1241;59686;-67
2023/10/26 09:55:47;;;;;;;2.80;1.40;;;;;;;16.00;99.74;96099.52;110267;1239;71495;-68
2023/10/26 09:58:18;;;;;;;2.70;1.20;;;;;;;15.93;100.00;96094.94;110181;1242;69624;-68
2023/10/26 10:00:47;;;;;;;2.40;1.20;;;;;;;15.90;100.00;96091.84;110265;1241;69279;-68
2023/10/26 10:03:18;;;;;;;1.60;1.00;;;;;;;15.84;100.00;96090.33;110258;1240;59754;-69
2023/10/26 10:05:48;;;;;;;2.10;1.40;;;;;;;15.75;99.85;96086.36;110296;1240;59700;-67
2023/10/26 10:08:56;;;;;;;1.60;1.20;;;;;;;15.78;100.00;96080.16;110305;1241;70467;-67
2023/10/26 10:11:25;;;;;;;2.10;1.20;;;;;;;15.88;100.00;96082.45;110284;1241;69816;-67
2023/10/26 10:13:55;;;;;;;2.60;1.40;;;;;;;15.91;100.00;96081.20;110237;1241;69124;-67
2023/10/26 10:16:36;;;;;;;1.70;1.20;;;;;;;15.99;100.00;96081.42;110222;1239;59754;-67
2023/10/26 10:19:28;;;;;;;5.30;1.40;;;;;;;16.13;100.00;96076.77;110314;1240;59648;-67
2023/10/26 10:22:02;;;;;;;2.60;1.40;;;;;;;16.39;100.00;96063.86;110353;1241;71238;-69
2023/10/26 10:24:49;;;;;;;1.60;1.00;;;;;;;16.62;100.00;96059.99;110331;1241;68646;-68
2023/10/26 10:27:18;;;;;;;2.10;1.20;;;;;;;16.91;99.66;96055.36;110321;1241;69859;-68
2023/10/26 10:29:48;;;;;;;2.50;1.30;;;;;;;17.12;100.00;96056.40;110325;1241;60088;-67
2023/10/26 10:32:44;;;;;;;2.00;1.20;;;;;;;17.33;100.00;96058.06;110236;1242;59663;-67
2023/10/26 10:35:46;;;;;;;2.20;1.30;;;;;;;17.53;98.71;96061.94;110276;1241;70632;-67
2023/10/26 10:38:18;;;;;;;2.20;1.60;;;;;;;17.63;97.36;96053.54;110338;1241;68590;-70
2023/10/26 10:40:57;;;;;;;3.10;1.60;;;;;;;17.74;96.95;96053.20;110347;1240;68583;-69
2023/10/26 10:43:46;;;;;;;2.40;1.40;;;;;;;17.95;94.49;96053.29;110338;1241;59694;-68
2023/10/26 10:46:29;;;;;;;2.40;1.60;;;;;;;18.12;89.26;96045.38;110326;1241;59738;-68
2023/10/26 10:49:00;;;;;;;2.20;1.20;;;;;;;18.23;90.61;96043.42;110348;1241;70748;-68
2023/10/26 10:51:34;;;;;;;1.60;1.10;;;;;;;18.31;89.55;96036.93;110393;1241;69318;-68
2023/10/26 10:54:11;;;;;;;1.90;1.20;;;;;;;18.37;89.02;96033.39;110326;1241;69683;-68
2023/10/26 10:57:04;;;;;;;1.70;1.20;;;;;;;18.42;88.78;96023.55;110340;1241;59728;-68
2023/10/26 10:59:33;;;;;;;3.20;1.30;;;;;;;18.47;91.40;96014.65;110250;1241;59726;-68
2023/10/26 11:02:12;;;;;;;2.20;1.40;;;;;;;18.42;86.06;96008.81;110223;1241;71592;-67
2023/10/26 11:04:53;;;;;;;1.90;1.30;;;;;;;18.36;88.69;96004.08;110243;1241;69194;-66
2023/10/26 11:07:37;;;;;;;2.30;1.20;;;;;;;18.26;87.36;95999.83;110263;1240;69602;-67
2023/10/26 11:10:08;;;;;;;2.00;1.10;;;;;;;18.18;86.37;95998.88;110224;1240;59741;-67
2023/10/26 11:12:37;;;;;;;3.00;1.30;;;;;;;18.19;88.22;96002.91;110257;1241;59630;-69
2023/10/26 11:15:07;;;;;;;2.30;1.20;;;;;;;18.09;85.43;96002.48;110263;1241;70815;-66
2023/10/26 11:17:39;;;;;;;3.40;1.40;;;;;;;18.09;88.97;96004.34;110262;1241;69815;-66
2023/10/26 11:20:36;;;;;;;1.60;1.20;;;;;;;18.05;87.47;96000.24;110281;1240;69468;-67
2023/10/26 11:23:07;;;;;;;1.90;1.10;;;;;;;17.93;85.70;95998.77;110257;1241;60149;-67
2023/10/26 11:25:37;;;;;;;3.20;1.30;;;;;;;17.89;85.30;95996.06;110306;1240;59719;-67
2023/10/26 11:28:11;;;;;;;1.80;1.30;;;;;;;17.83;85.37;95994.55;110335;1240;71347;-68
2023/10/26 11:30:51;;;;;;;2.00;1.30;;;;;;;17.76;87.13;95995.41;110259;1241;69145;-66
2023/10/26 11:33:30;;;;;;;1.90;1.20;;;;;;;17.70;86.42;95995.05;110242;1240;69915;-68
2023/10/26 11:36:01;;;;;;;2.80;1.30;;;;;;;17.67;87.24;95996.62;110296;1240;59729;-68
2023/10/26 11:38:31;;;;;;;3.10;1.30;;;;;;;17.64;87.89;95989.20;110298;1241;59682;-68
2023/10/26 11:41:01;;;;;;;2.00;1.30;;;;;;;17.64;87.78;95986.46;110295;1241;72146;-66
2023/10/26 11:43:35;;;;;;;2.10;1.50;;;;;;;17.63;88.58;95983.05;110329;1241;69203;-69
2023/10/26 11:46:04;;;;;;;2.80;1.40;;;;;;;17.61;88.77;95976.60;110249;1241;68422;-68